Time;durP1;ratioP1;P1;durP2;ratioP2;P2;SDS_P1;SDS_P2;PMS_P1;PMS_P2;Temp;Humidity;BMP_temperature;BMP_pressure;BME280_temperature;BME280_humidity;BME280_pressure;Samples;Min_cycle;Max_cycle;Signal;HPM_P1;HPM_P2
2023/08/20 00:01:57;;;;;;;16.73;7.60;;;21.70;99.90;;;;;;7597843;19;20027;-73
2023/08/20 00:04:32;;;;;;;16.20;6.97;;;21.60;99.90;;;;;;7598745;19;20074;-74
2023/08/20 00:07:05;;;;;;;10.00;6.63;;;21.60;99.90;;;;;;7595581;19;20063;-75
2023/08/20 00:09:37;;;;;;;12.10;7.03;;;21.50;99.90;;;;;;7600833;19;20007;-75
2023/08/20 00:12:10;;;;;;;14.35;6.78;;;21.50;99.90;;;;;;7604491;19;20033;-75
2023/08/20 00:14:58;;;;;;;10.88;7.22;;;21.40;99.90;;;;;;7598910;19;20018;-74
2023/08/20 00:17:31;;;;;;;14.27;7.60;;;21.30;99.90;;;;;;7599650;19;21172;-75
2023/08/20 00:20:12;;;;;;;13.77;6.57;;;21.20;99.90;;;;;;7600555;19;20022;-75
2023/08/20 00:22:46;;;;;;;10.38;6.90;;;21.30;99.90;;;;;;7602246;19;20770;-75
2023/08/20 00:25:19;;;;;;;11.05;7.00;;;21.30;99.90;;;;;;7594464;19;21267;-77
2023/08/20 00:27:51;;;;;;;11.07;6.57;;;21.30;99.90;;;;;;7602540;19;21053;-74
2023/08/20 00:30:24;;;;;;;12.38;7.00;;;21.20;99.90;;;;;;7603439;19;20340;-75
2023/08/20 00:32:57;;;;;;;10.23;6.47;;;21.10;99.90;;;;;;7600428;19;20740;-74
2023/08/20 00:35:29;;;;;;;13.65;6.95;;;21.10;99.90;;;;;;7598756;19;20055;-74
2023/08/20 00:38:02;;;;;;;16.33;6.82;;;21.00;99.90;;;;;;7599704;19;20018;-73
2023/08/20 00:40:34;;;;;;;11.68;6.65;;;21.00;99.90;;;;;;7601007;19;20092;-74
2023/08/20 00:43:06;;;;;;;11.48;7.47;;;20.90;99.90;;;;;;7602333;19;20031;-74
2023/08/20 00:45:41;;;;;;;10.57;6.68;;;20.80;99.90;;;;;;7597601;19;20022;-74
2023/08/20 00:48:13;;;;;;;12.00;6.95;;;20.80;99.90;;;;;;7600550;19;20019;-74
2023/08/20 00:50:46;;;;;;;;;;;20.90;99.90;;;;;;7600387;19;20569;-74
2023/08/20 00:53:18;;;;;;;14.13;7.00;;;20.90;99.90;;;;;;7602042;19;19933;-75
2023/08/20 00:55:51;;;;;;;13.15;7.25;;;20.80;99.90;;;;;;7592371;19;20011;-74
2023/08/20 00:58:23;;;;;;;11.70;6.65;;;20.70;99.90;;;;;;7602861;19;20022;-74
2023/08/20 01:00:56;;;;;;;14.10;7.00;;;20.70;99.90;;;;;;7597000;19;20636;-74
2023/08/20 01:03:28;;;;;;;12.05;6.90;;;20.60;99.90;;;;;;7597451;19;20113;-73
2023/08/20 01:06:23;;;;;;;10.07;6.88;;;20.50;99.90;;;;;;7595648;19;20052;-75
2023/08/20 01:09:02;;;;;;;;;;;20.50;99.90;;;;;;7600013;19;20022;-75
2023/08/20 01:11:42;;;;;;;12.02;6.60;;;20.50;99.90;;;;;;7601853;19;19922;-74
2023/08/20 01:14:15;;;;;;;10.07;6.47;;;20.50;99.90;;;;;;7601090;19;20014;-76
2023/08/20 01:16:49;;;;;;;13.50;7.88;;;20.50;99.90;;;;;;7596629;19;20038;-74
2023/08/20 01:19:22;;;;;;;10.82;6.95;;;20.40;99.90;;;;;;7602817;19;20612;-74
2023/08/20 01:22:09;;;;;;;14.35;7.35;;;20.40;99.90;;;;;;7596234;19;20102;-74
2023/08/20 01:25:11;;;;;;;9.70;6.97;;;20.40;99.90;;;;;;7597283;19;20041;-75
2023/08/20 01:28:04;;;;;;;12.57;7.00;;;20.50;99.90;;;;;;7595501;19;20014;-74
2023/08/20 01:30:37;;;;;;;16.75;7.60;;;20.40;99.90;;;;;;7596459;19;20538;-75
2023/08/20 01:33:12;;;;;;;9.90;7.03;;;20.30;99.90;;;;;;7598449;19;20021;-75
2023/08/20 01:35:44;;;;;;;13.02;6.60;;;20.30;99.90;;;;;;7597324;19;20014;-76
2023/08/20 01:38:20;;;;;;;15.57;7.43;;;20.30;99.90;;;;;;7599076;19;21173;-75
2023/08/20 01:40:52;;;;;;;20.95;7.50;;;20.20;99.90;;;;;;7599318;19;20021;-75
2023/08/20 01:43:25;;;;;;;10.57;6.43;;;20.10;99.90;;;;;;7597403;19;20042;-74
2023/08/20 01:45:59;;;;;;;12.68;6.80;;;20.10;99.90;;;;;;7594385;19;20044;-75
2023/08/20 01:48:32;;;;;;;14.07;6.80;;;20.30;99.90;;;;;;7593217;19;20971;-74
2023/08/20 01:51:04;;;;;;;9.68;6.30;;;20.40;99.90;;;;;;7599415;19;20467;-74
2023/08/20 01:53:37;;;;;;;9.18;6.70;;;20.50;99.90;;;;;;7597522;19;20045;-74
2023/08/20 01:56:13;;;;;;;13.00;6.97;;;20.40;99.90;;;;;;7588863;19;20875;-73
2023/08/20 01:58:45;;;;;;;9.20;6.22;;;20.30;99.90;;;;;;7595088;19;20014;-73
2023/08/20 02:01:17;;;;;;;11.93;7.40;;;20.30;99.90;;;;;;7594504;19;20618;-74
2023/08/20 02:03:50;;;;;;;12.80;7.18;;;20.20;99.90;;;;;;7596386;19;20507;-74
2023/08/20 02:06:22;;;;;;;10.43;6.53;;;20.10;99.90;;;;;;7592527;19;20039;-74
2023/08/20 02:08:54;;;;;;;10.75;6.57;;;20.00;99.90;;;;;;7598129;19;20018;-74
2023/08/20 02:11:29;;;;;;;18.60;7.18;;;20.00;99.90;;;;;;7597764;19;20358;-74
2023/08/20 02:14:02;;;;;;;10.77;6.68;;;20.00;99.90;;;;;;7600713;19;20026;-74
2023/08/20 02:16:35;;;;;;;10.68;6.68;;;19.90;99.90;;;;;;7587609;19;20018;-73
2023/08/20 02:19:07;;;;;;;13.10;7.05;;;19.90;99.90;;;;;;7600202;19;20141;-73
2023/08/20 02:21:40;;;;;;;15.32;6.55;;;19.90;99.90;;;;;;7599819;19;20789;-76
2023/08/20 02:24:12;;;;;;;18.63;7.18;;;19.70;99.90;;;;;;7603664;19;20023;-74
2023/08/20 02:26:45;;;;;;;13.65;7.28;;;19.70;99.90;;;;;;7597851;19;20022;-74
2023/08/20 02:29:17;;;;;;;18.75;7.25;;;19.70;99.90;;;;;;7602648;19;20051;-74
2023/08/20 02:31:50;;;;;;;14.05;7.18;;;19.60;99.90;;;;;;7598698;19;21091;-73
2023/08/20 02:34:22;;;;;;;16.40;7.20;;;19.60;99.90;;;;;;7598547;19;20023;-72
2023/08/20 02:36:55;;;;;;;12.25;6.97;;;19.60;99.90;;;;;;7598218;19;20029;-74
2023/08/20 02:39:27;;;;;;;10.43;6.67;;;19.50;99.90;;;;;;7601969;19;20014;-74
2023/08/20 02:42:00;;;;;;;13.45;7.60;;;19.50;99.90;;;;;;7602145;19;20021;-74
2023/08/20 02:44:32;;;;;;;14.93;7.33;;;19.60;99.90;;;;;;7603718;19;20025;-72
2023/08/20 02:47:05;;;;;;;17.05;6.97;;;19.70;99.90;;;;;;7603511;19;20018;-75
2023/08/20 02:49:37;;;;;;;13.18;6.72;;;19.70;99.90;;;;;;7606099;19;20020;-75
2023/08/20 02:52:10;;;;;;;11.68;7.05;;;19.70;99.90;;;;;;7609229;19;20030;-74
2023/08/20 02:54:42;;;;;;;12.20;6.60;;;19.70;99.90;;;;;;7605030;19;20636;-73
2023/08/20 02:57:14;;;;;;;12.32;7.13;;;19.80;99.90;;;;;;7604438;19;20013;-74
2023/08/20 02:59:46;;;;;;;11.38;7.03;;;19.70;99.90;;;;;;7598130;19;20032;-75
2023/08/20 03:02:19;;;;;;;11.63;6.70;;;19.60;99.90;;;;;;7593134;19;20022;-74
2023/08/20 03:04:51;;;;;;;11.60;6.90;;;19.50;99.90;;;;;;7586477;19;20026;-75
2023/08/20 03:07:23;;;;;;;11.43;7.03;;;19.40;99.90;;;;;;7594204;19;20015;-75
2023/08/20 03:09:55;;;;;;;14.55;7.00;;;19.40;99.90;;;;;;7592347;19;20014;-75
2023/08/20 03:12:27;;;;;;;13.57;6.63;;;19.40;99.90;;;;;;7594768;19;20011;-76
2023/08/20 03:15:00;;;;;;;19.67;6.53;;;19.30;99.90;;;;;;7589171;19;20011;-74
2023/08/20 03:17:32;;;;;;;16.42;7.30;;;19.30;99.90;;;;;;7592584;19;20014;-75
2023/08/20 03:20:06;;;;;;;12.05;7.28;;;19.30;99.90;;;;;;7589037;19;20026;-74
2023/08/20 03:22:38;;;;;;;;;;;19.30;99.90;;;;;;7589423;19;20051;-74
2023/08/20 03:25:11;;;;;;;14.57;7.43;;;19.40;99.90;;;;;;7589954;19;20342;-75
2023/08/20 03:27:43;;;;;;;13.15;7.53;;;19.30;99.90;;;;;;7588801;19;20026;-75
2023/08/20 03:30:16;;;;;;;15.82;7.00;;;19.30;99.90;;;;;;7593541;19;20018;-74
2023/08/20 03:32:49;;;;;;;14.75;6.90;;;19.30;99.90;;;;;;7589913;19;20014;-73
2023/08/20 03:35:21;;;;;;;12.82;6.80;;;19.20;99.90;;;;;;7591720;19;20027;-75
2023/08/20 03:37:54;;;;;;;14.60;7.10;;;19.20;99.90;;;;;;7589907;19;20018;-77
2023/08/20 03:40:28;;;;;;;12.30;6.20;;;19.20;99.90;;;;;;7591883;19;20022;-75
2023/08/20 03:43:00;;;;;;;14.90;7.38;;;19.10;99.90;;;;;;7588592;19;20014;-76
2023/08/20 03:45:32;;;;;;;15.70;7.03;;;19.00;99.90;;;;;;7600845;19;20021;-76
2023/08/20 03:48:04;;;;;;;15.00;7.13;;;18.90;99.90;;;;;;7590071;19;20048;-75
2023/08/20 03:50:37;;;;;;;15.70;7.25;;;18.90;99.90;;;;;;7597497;19;20032;-75
2023/08/20 03:53:09;;;;;;;14.05;6.70;;;18.90;99.90;;;;;;7597539;19;20018;-76
2023/08/20 03:55:42;;;;;;;13.77;7.68;;;18.90;99.90;;;;;;7594012;19;20392;-75
2023/08/20 03:58:14;;;;;;;14.65;6.95;;;18.90;99.90;;;;;;7594122;19;20015;-76
2023/08/20 04:00:47;;;;;;;18.63;7.38;;;18.80;99.90;;;;;;7600433;19;20973;-76
2023/08/20 04:03:19;;;;;;;14.27;7.50;;;18.80;99.90;;;;;;7602336;19;20063;-75
2023/08/20 04:05:51;;;;;;;12.27;6.72;;;18.80;99.90;;;;;;7595846;19;20113;-75
2023/08/20 04:08:24;;;;;;;11.65;7.03;;;18.80;99.90;;;;;;7603170;19;20018;-75
2023/08/20 04:10:56;;;;;;;15.02;7.60;;;18.80;99.90;;;;;;7595617;19;20022;-76
2023/08/20 04:13:29;;;;;;;16.02;7.47;;;18.70;99.90;;;;;;7601117;19;20491;-73
2023/08/20 04:16:02;;;;;;;14.77;7.40;;;18.70;99.90;;;;;;7591991;19;20022;-77
2023/08/20 04:18:34;;;;;;;15.98;7.60;;;18.70;99.90;;;;;;7597439;19;20018;-75
2023/08/20 04:21:07;;;;;;;19.25;7.38;;;18.70;99.90;;;;;;7594497;19;20113;-75
2023/08/20 04:23:41;;;;;;;15.68;7.63;;;18.60;99.90;;;;;;7599396;19;20025;-75
2023/08/20 04:26:14;;;;;;;11.93;7.70;;;18.50;99.90;;;;;;7594429;19;20030;-75
2023/08/20 04:28:47;;;;;;;13.65;6.88;;;18.60;99.90;;;;;;7597912;19;20120;-76
2023/08/20 04:31:19;;;;;;;10.90;6.70;;;18.70;99.90;;;;;;7596703;19;20510;-77
2023/08/20 04:34:05;;;;;;;15.50;7.00;;;18.70;99.90;;;;;;7592661;19;20318;-77
2023/08/20 04:36:44;;;;;;;13.98;7.72;;;18.70;99.90;;;;;;7597099;19;20030;-76
2023/08/20 04:39:17;;;;;;;11.13;7.50;;;18.70;99.90;;;;;;7596992;19;20025;-76
2023/08/20 04:41:53;;;;;;;11.90;7.25;;;18.80;99.90;;;;;;7597457;19;20015;-74
2023/08/20 04:44:26;;;;;;;10.90;6.50;;;18.80;99.90;;;;;;7597942;19;20063;-75
2023/08/20 04:47:00;;;;;;;15.82;7.47;;;18.80;99.90;;;;;;7592338;19;20018;-75
2023/08/20 04:49:35;;;;;;;12.63;6.43;;;18.80;99.90;;;;;;7599483;19;20497;-75
2023/08/20 04:52:07;;;;;;;10.70;7.25;;;18.80;99.90;;;;;;7595615;19;20021;-75
2023/08/20 04:54:40;;;;;;;13.02;7.28;;;18.80;99.90;;;;;;7597473;19;20021;-76
2023/08/20 04:57:13;;;;;;;12.57;6.90;;;18.80;99.90;;;;;;7595129;19;20022;-76
2023/08/20 04:59:46;;;;;;;;;;;18.80;99.90;;;;;;7599454;19;20436;-73
2023/08/20 05:02:22;;;;;;;13.30;6.78;;;18.80;99.90;;;;;;7601759;19;20610;-74
2023/08/20 05:04:58;;;;;;;13.40;7.43;;;18.80;99.90;;;;;;7597090;19;20025;-76
2023/08/20 05:07:31;;;;;;;12.23;7.93;;;18.80;99.90;;;;;;7602326;19;20015;-76
2023/08/20 05:10:04;;;;;;;13.07;7.38;;;18.80;99.90;;;;;;7597342;19;20014;-76
2023/08/20 05:12:37;;;;;;;12.15;7.45;;;18.80;99.90;;;;;;7601565;19;20018;-76
2023/08/20 05:15:10;;;;;;;16.17;7.18;;;18.80;99.90;;;;;;7595622;19;20015;-76
2023/08/20 05:17:43;;;;;;;12.88;8.00;;;18.70;99.90;;;;;;7601328;19;20098;-76
2023/08/20 05:20:16;;;;;;;11.27;7.28;;;18.70;99.90;;;;;;7596412;19;20018;-73
2023/08/20 05:22:48;;;;;;;12.25;6.95;;;18.70;99.90;;;;;;7597460;19;20014;-74
2023/08/20 05:25:20;;;;;;;12.45;7.53;;;18.60;99.90;;;;;;7592383;19;20075;-74
2023/08/20 05:27:54;;;;;;;14.40;7.32;;;18.60;99.90;;;;;;7596500;19;20023;-74
2023/08/20 05:30:27;;;;;;;13.23;7.50;;;18.70;99.90;;;;;;7597583;19;20780;-74
2023/08/20 05:33:00;;;;;;;11.75;6.80;;;18.70;99.90;;;;;;7585397;19;21576;-73
2023/08/20 05:35:39;;;;;;;11.48;7.18;;;18.80;99.90;;;;;;7597387;19;20105;-76
2023/08/20 05:38:11;;;;;;;13.13;7.85;;;19.00;99.90;;;;;;7596036;19;20151;-73
2023/08/20 05:40:44;;;;;;;15.07;7.70;;;19.10;99.90;;;;;;7596820;19;20015;-75
2023/08/20 05:43:16;;;;;;;14.35;7.55;;;19.00;99.90;;;;;;7593585;19;20026;-76
2023/08/20 05:45:49;;;;;;;11.88;7.30;;;19.20;99.90;;;;;;7596478;19;20507;-74
2023/08/20 05:48:25;;;;;;;13.18;7.18;;;19.40;99.90;;;;;;7597996;19;20022;-74
2023/08/20 05:50:57;;;;;;;15.57;7.35;;;19.50;99.90;;;;;;7597419;19;20707;-77
2023/08/20 05:53:30;;;;;;;12.32;6.90;;;19.60;99.90;;;;;;7598598;19;20106;-74
2023/08/20 05:56:02;;;;;;;10.80;7.15;;;19.70;99.90;;;;;;7591146;19;20115;-77
2023/08/20 05:58:35;;;;;;;9.75;6.72;;;19.80;99.90;;;;;;7602601;19;20022;-75
2023/08/20 06:01:07;;;;;;;12.10;6.78;;;19.90;99.90;;;;;;7593494;19;20014;-73
2023/08/20 06:03:39;;;;;;;14.93;7.32;;;20.10;99.90;;;;;;7593150;19;20020;-73
2023/08/20 06:06:12;;;;;;;12.57;6.78;;;20.20;99.90;;;;;;7585634;19;20019;-74
2023/08/20 06:08:44;;;;;;;11.98;6.72;;;20.30;99.90;;;;;;7599998;19;20018;-76
2023/08/20 06:11:36;;;;;;;17.05;7.07;;;20.40;99.90;;;;;;7596219;19;20015;-77
2023/08/20 06:14:09;;;;;;;12.07;6.93;;;20.50;99.90;;;;;;7595414;19;20024;-76
2023/08/20 06:16:41;;;;;;;12.15;6.53;;;20.60;99.90;;;;;;7599776;19;20018;-73
2023/08/20 06:19:13;;;;;;;15.07;7.47;;;20.60;99.90;;;;;;7600568;19;20022;-74
2023/08/20 06:21:45;;;;;;;9.93;6.30;;;20.80;99.90;;;;;;7601274;19;20018;-74
2023/08/20 06:24:18;;;;;;;14.02;6.25;;;20.90;99.90;;;;;;7592096;19;20022;-75
2023/08/20 06:26:51;;;;;;;14.75;6.80;;;21.00;99.90;;;;;;7597680;19;20030;-73
2023/08/20 06:29:24;;;;;;;13.52;6.75;;;21.20;99.90;;;;;;7599550;19;20022;-74
2023/08/20 06:31:56;;;;;;;10.02;6.03;;;21.40;99.90;;;;;;7593766;19;20022;-74
2023/08/20 06:34:28;;;;;;;13.20;6.38;;;21.50;99.90;;;;;;7596636;19;20052;-75
2023/08/20 06:37:01;;;;;;;16.80;6.70;;;21.60;99.90;;;;;;7594540;19;20039;-74
2023/08/20 06:39:33;;;;;;;11.48;6.95;;;21.80;99.90;;;;;;7594487;19;20010;-73
2023/08/20 06:42:06;;;;;;;12.57;7.03;;;22.00;99.90;;;;;;7593465;19;20130;-77
2023/08/20 06:44:38;;;;;;;12.20;6.28;;;22.10;99.90;;;;;;7598422;19;20821;-73
2023/08/20 06:47:11;;;;;;;8.75;5.70;;;22.30;99.90;;;;;;7589665;19;20021;-74
2023/08/20 06:49:44;;;;;;;13.88;6.55;;;22.40;99.90;;;;;;7595762;19;20449;-75
2023/08/20 06:52:17;;;;;;;9.67;5.90;;;22.50;99.90;;;;;;7593369;19;20026;-73
2023/08/20 06:54:50;;;;;;;9.82;6.30;;;22.70;99.90;;;;;;7596210;19;20504;-75
2023/08/20 06:57:22;;;;;;;9.65;6.18;;;22.80;99.90;;;;;;7591148;19;20093;-74
2023/08/20 06:59:54;;;;;;;11.38;6.53;;;23.00;99.90;;;;;;7596143;19;20903;-73
2023/08/20 07:02:27;;;;;;;15.68;6.03;;;23.10;99.90;;;;;;7593462;19;20026;-74
2023/08/20 07:04:59;;;;;;;10.88;5.82;;;23.20;99.90;;;;;;7595225;19;20058;-74
2023/08/20 07:07:31;;;;;;;11.57;6.07;;;23.40;99.90;;;;;;7594036;19;20027;-75
2023/08/20 07:10:05;;;;;;;8.35;5.78;;;23.50;99.90;;;;;;7587640;19;20025;-74
2023/08/20 07:12:37;;;;;;;12.10;6.25;;;23.70;99.90;;;;;;7592651;19;20014;-74
2023/08/20 07:15:10;;;;;;;11.18;6.13;;;23.80;99.90;;;;;;7593609;19;20017;-74
2023/08/20 07:17:42;;;;;;;10.30;5.63;;;24.00;99.90;;;;;;7579812;19;20936;-75
2023/08/20 07:20:17;;;;;;;10.27;5.68;;;24.10;99.90;;;;;;7594032;19;20018;-74
2023/08/20 07:22:49;;;;;;;8.15;5.50;;;24.20;99.90;;;;;;7594980;19;20030;-75
2023/08/20 07:25:22;;;;;;;13.80;6.38;;;24.40;99.90;;;;;;7594352;19;20034;-74
2023/08/20 07:27:59;;;;;;;13.25;6.10;;;24.60;99.90;;;;;;7597127;19;20020;-74
2023/08/20 07:30:31;;;;;;;13.45;5.78;;;24.80;99.90;;;;;;7590336;19;20048;-74
2023/08/20 07:33:06;;;;;;;7.47;4.95;;;24.90;99.90;;;;;;7596281;19;20019;-76
2023/08/20 07:35:38;;;;;;;9.27;5.70;;;25.00;98.80;;;;;;7597945;19;20022;-75
2023/08/20 07:38:10;;;;;;;9.95;5.13;;;25.20;99.30;;;;;;7594701;19;20025;-74
2023/08/20 07:40:43;;;;;;;10.40;5.55;;;25.30;98.00;;;;;;7589853;19;20018;-74
2023/08/20 07:43:16;;;;;;;8.77;5.18;;;25.40;98.90;;;;;;7600119;19;20056;-76
2023/08/20 07:45:48;;;;;;;10.85;5.32;;;25.60;97.00;;;;;;7590303;19;20048;-74
2023/08/20 07:48:20;;;;;;;9.00;5.40;;;25.70;96.70;;;;;;7588440;19;20014;-76
2023/08/20 07:50:52;;;;;;;11.95;5.90;;;25.80;98.60;;;;;;7595744;19;20389;-74
2023/08/20 07:53:25;;;;;;;8.20;5.15;;;25.80;97.60;;;;;;7597486;19;20018;-74
2023/08/20 07:55:57;;;;;;;13.30;5.90;;;26.10;97.60;;;;;;7589474;19;20437;-75
2023/08/20 07:58:30;;;;;;;11.40;4.93;;;26.30;97.00;;;;;;7594697;19;20022;-75
2023/08/20 08:01:02;;;;;;;9.32;5.63;;;26.30;96.70;;;;;;7592685;19;20283;-76
2023/08/20 08:03:34;;;;;;;12.40;5.90;;;26.40;95.70;;;;;;7591765;19;20041;-74
2023/08/20 08:06:07;;;;;;;15.60;5.65;;;26.50;95.10;;;;;;7592378;19;20284;-75
2023/08/20 08:08:42;;;;;;;9.25;5.18;;;26.60;95.50;;;;;;7593467;19;21409;-75
2023/08/20 08:11:14;;;;;;;10.88;5.80;;;26.80;96.10;;;;;;7594858;19;20491;-75
2023/08/20 08:13:47;;;;;;;13.00;4.80;;;26.70;95.50;;;;;;7594373;19;20182;-76
2023/08/20 08:16:20;;;;;;;9.88;6.03;;;26.80;95.80;;;;;;7591882;19;23121;-71
2023/08/20 08:18:52;;;;;;;12.82;5.50;;;26.80;95.10;;;;;;7581250;19;20022;-76
2023/08/20 08:21:25;;;;;;;9.73;5.57;;;26.90;95.10;;;;;;7592047;19;20022;-75
2023/08/20 08:23:57;;;;;;;17.13;5.78;;;27.00;93.80;;;;;;7595600;19;20123;-74
2023/08/20 08:26:30;;;;;;;12.77;6.10;;;27.00;94.00;;;;;;7589093;19;20026;-75
2023/08/20 08:29:03;;;;;;;10.50;6.25;;;27.30;93.80;;;;;;7591519;19;20029;-75
2023/08/20 08:31:35;;;;;;;;;;;27.40;94.40;;;;;;7599144;19;20041;-74
2023/08/20 08:34:08;;;;;;;8.38;5.70;;;27.60;93.20;;;;;;7594485;19;19919;-76
2023/08/20 08:36:40;;;;;;;7.28;5.47;;;27.60;92.00;;;;;;7601724;19;21034;-75
2023/08/20 08:39:16;;;;;;;11.03;5.37;;;27.70;92.50;;;;;;7604543;19;20011;-75
2023/08/20 08:41:53;;;;;;;11.45;5.53;;;27.80;92.10;;;;;;7601569;19;20776;-74
2023/08/20 08:44:26;;;;;;;13.00;5.88;;;27.90;92.50;;;;;;7596991;19;20007;-73
2023/08/20 08:46:58;;;;;;;8.02;5.05;;;27.90;90.80;;;;;;7601960;19;20036;-74
2023/08/20 08:49:34;;;;;;;7.78;5.25;;;28.00;90.70;;;;;;7597313;19;20966;-75
2023/08/20 08:52:09;;;;;;;10.57;5.05;;;28.20;89.50;;;;;;7595123;19;20138;-75
2023/08/20 08:54:42;;;;;;;16.52;5.47;;;28.30;87.20;;;;;;7597824;19;20949;-74
2023/08/20 08:57:15;;;;;;;11.57;5.20;;;28.30;87.80;;;;;;7597022;19;20010;-74
2023/08/20 08:59:48;;;;;;;6.55;4.40;;;28.40;84.40;;;;;;7602381;19;20018;-76
2023/08/20 09:02:20;;;;;;;11.70;5.03;;;28.30;85.00;;;;;;7593408;19;20022;-76
2023/08/20 09:04:53;;;;;;;7.67;4.97;;;28.40;87.00;;;;;;7599571;19;20023;-74
2023/08/20 09:07:25;;;;;;;9.60;4.85;;;28.50;85.40;;;;;;7597537;19;20018;-74
2023/08/20 09:10:00;;;;;;;14.55;4.75;;;28.50;83.50;;;;;;7600507;19;20022;-74
2023/08/20 09:12:35;;;;;;;7.45;4.85;;;28.50;83.70;;;;;;7594710;19;20019;-74
2023/08/20 09:15:11;;;;;;;10.23;4.85;;;28.60;83.00;;;;;;7595987;19;20026;-74
2023/08/20 09:17:46;;;;;;;11.60;4.68;;;28.60;82.50;;;;;;7600979;19;20052;-76
2023/08/20 09:20:34;;;;;;;8.60;4.55;;;28.60;82.80;;;;;;7591647;19;20022;-75
2023/08/20 09:23:13;;;;;;;11.02;5.20;;;28.70;82.40;;;;;;7599501;19;20599;-75
2023/08/20 09:25:45;;;;;;;6.32;5.20;;;28.80;83.00;;;;;;7598455;19;20018;-76
2023/08/20 09:28:19;;;;;;;6.50;4.75;;;28.80;81.40;;;;;;7593394;19;20011;-74
2023/08/20 09:31:01;;;;;;;7.25;4.18;;;28.90;82.20;;;;;;7600728;19;20015;-74
2023/08/20 09:33:34;;;;;;;7.03;5.15;;;28.90;82.40;;;;;;7584586;19;20014;-74
2023/08/20 09:36:08;;;;;;;9.50;5.53;;;29.00;81.80;;;;;;7596738;19;20030;-74
2023/08/20 09:38:40;;;;;;;8.00;5.18;;;29.10;79.90;;;;;;7595892;19;20275;-75
2023/08/20 09:41:15;;;;;;;7.45;4.90;;;29.10;80.70;;;;;;7597394;19;20791;-75
2023/08/20 09:43:53;;;;;;;7.17;4.77;;;29.10;79.60;;;;;;7595439;19;20866;-74
2023/08/20 09:46:28;;;;;;;7.75;4.95;;;29.20;81.30;;;;;;7589675;19;20369;-75
2023/08/20 09:49:03;;;;;;;7.63;4.43;;;29.20;80.60;;;;;;7599514;19;20570;-75
2023/08/20 09:51:36;;;;;;;6.85;5.45;;;29.30;81.20;;;;;;7596080;19;20026;-74
2023/08/20 09:54:21;;;;;;;16.67;5.45;;;29.30;79.90;;;;;;7597708;19;20514;-73
2023/08/20 09:56:58;;;;;;;8.50;5.07;;;29.40;81.00;;;;;;7598051;19;20022;-74
2023/08/20 09:59:32;;;;;;;14.98;5.63;;;29.40;81.30;;;;;;7593705;19;20018;-74
2023/08/20 10:02:04;;;;;;;12.52;5.35;;;29.50;80.80;;;;;;7594536;19;20014;-73
2023/08/20 10:04:37;;;;;;;10.35;5.88;;;29.60;78.90;;;;;;7593179;19;20055;-75
2023/08/20 10:07:12;;;;;;;7.38;5.40;;;29.60;77.80;;;;;;7598835;19;20086;-74
2023/08/20 10:09:45;;;;;;;9.30;5.15;;;29.60;78.70;;;;;;7595344;19;21010;-74
2023/08/20 10:12:19;;;;;;;8.43;4.93;;;29.60;79.10;;;;;;7599790;19;20029;-76
2023/08/20 10:14:52;;;;;;;6.65;5.03;;;29.60;78.30;;;;;;7595989;19;20007;-76
2023/08/20 10:17:25;;;;;;;5.53;5.03;;;29.60;75.90;;;;;;7596734;19;20015;-74
2023/08/20 10:19:58;;;;;;;;;;;29.60;76.30;;;;;;7599982;19;20091;-76
2023/08/20 10:22:39;;;;;;;8.95;4.70;;;29.70;75.40;;;;;;7595954;19;20621;-74
2023/08/20 10:25:25;;;;;;;10.38;4.88;;;29.70;74.70;;;;;;7596820;19;20021;-76
2023/08/20 10:28:26;;;;;;;7.13;5.03;;;29.70;75.10;;;;;;7600891;19;20025;-74
2023/08/20 10:31:12;;;;;;;6.45;4.93;;;29.70;73.90;;;;;;7600425;19;20014;-75
2023/08/20 10:33:48;;;;;;;9.73;5.30;;;29.70;73.70;;;;;;7600861;19;20014;-74
2023/08/20 10:36:24;;;;;;;6.75;4.90;;;29.80;72.20;;;;;;7595722;19;20018;-75
2023/08/20 10:39:05;;;;;;;19.08;5.20;;;29.80;71.20;;;;;;7596128;19;20018;-73
2023/08/20 10:41:37;;;;;;;9.23;4.55;;;29.80;71.30;;;;;;7595184;19;20728;-75
2023/08/20 10:44:10;;;;;;;6.07;4.43;;;29.80;69.00;;;;;;7597613;19;20720;-75
2023/08/20 10:46:51;;;;;;;8.23;4.38;;;29.90;70.70;;;;;;7597247;19;20018;-75
2023/08/20 10:49:23;;;;;;;8.98;4.85;;;29.90;71.50;;;;;;7598299;19;20018;-74
2023/08/20 10:51:57;;;;;;;4.83;4.00;;;30.10;71.10;;;;;;7600867;19;20039;-74
2023/08/20 10:54:30;;;;;;;7.90;4.60;;;30.10;70.90;;;;;;7595189;19;20295;-74
2023/08/20 10:57:04;;;;;;;5.95;4.78;;;30.20;69.10;;;;;;7604299;19;20467;-75
2023/08/20 10:59:40;;;;;;;7.57;4.15;;;30.20;68.70;;;;;;7599835;19;20014;-76
2023/08/20 11:02:17;;;;;;;7.07;4.60;;;30.30;69.80;;;;;;7597988;19;20029;-75
2023/08/20 11:04:53;;;;;;;8.55;4.53;;;30.40;67.60;;;;;;7600325;19;21436;-75
2023/08/20 11:07:27;;;;;;;7.85;4.40;;;30.50;68.00;;;;;;7596842;19;20109;-75
2023/08/20 11:10:00;;;;;;;6.70;4.43;;;30.60;66.20;;;;;;7599588;19;20022;-76
2023/08/20 11:12:33;;;;;;;7.40;4.40;;;30.90;70.90;;;;;;7594978;19;20010;-75
2023/08/20 11:15:07;;;;;;;7.03;4.97;;;31.40;68.00;;;;;;7599386;19;20015;-75
2023/08/20 11:17:45;;;;;;;9.88;4.75;;;31.80;66.90;;;;;;7591956;19;20287;-75
2023/08/20 11:20:21;;;;;;;8.43;4.38;;;32.00;66.30;;;;;;7598103;19;21994;-77
2023/08/20 11:22:54;;;;;;;11.25;5.05;;;32.20;65.40;;;;;;7602814;19;20018;-75
2023/08/20 11:25:26;;;;;;;10.23;4.60;;;32.40;64.90;;;;;;7596804;19;20029;-74
2023/08/20 11:28:00;;;;;;;6.30;4.72;;;32.70;64.60;;;;;;7599155;19;20121;-74
2023/08/20 11:30:32;;;;;;;5.40;4.40;;;33.00;64.00;;;;;;7598102;19;20045;-74
2023/08/20 11:33:05;;;;;;;11.68;4.55;;;33.30;64.20;;;;;;7604156;19;20030;-77
2023/08/20 11:35:38;;;;;;;;;;;33.40;61.90;;;;;;7608217;19;20018;-79
2023/08/20 11:38:11;;;;;;;7.75;4.10;;;33.60;60.40;;;;;;7603794;19;19923;-79
2023/08/20 11:40:43;;;;;;;12.82;4.93;;;33.90;60.20;;;;;;7599914;19;20025;-79
2023/08/20 11:43:16;;;;;;;11.20;4.82;;;34.30;61.70;;;;;;7608103;19;20020;-78
2023/08/20 11:45:49;;;;;;;6.63;4.40;;;34.50;58.90;;;;;;7605553;19;20034;-79
2023/08/20 11:48:22;;;;;;;6.80;4.63;;;34.70;59.60;;;;;;7612494;19;20102;-78
2023/08/20 11:50:57;;;;;;;6.55;4.47;;;34.60;59.50;;;;;;7611958;19;20018;-78
2023/08/20 11:53:29;;;;;;;6.45;4.60;;;34.70;61.30;;;;;;7608737;19;20098;-78
2023/08/20 11:56:01;;;;;;;8.23;5.07;;;34.80;62.00;;;;;;7612932;19;20040;-77
2023/08/20 11:58:34;;;;;;;5.82;4.35;;;34.80;59.80;;;;;;7612806;19;20048;-78
2023/08/20 12:01:10;;;;;;;8.50;4.75;;;35.00;61.00;;;;;;7614102;19;20010;-78
2023/08/20 12:03:43;;;;;;;8.30;4.57;;;35.10;59.30;;;;;;7610429;19;20015;-79
2023/08/20 12:06:20;;;;;;;9.98;4.63;;;35.20;60.90;;;;;;7614450;19;20018;-77
2023/08/20 12:08:52;;;;;;;6.15;4.30;;;35.10;60.20;;;;;;7617565;19;20074;-78
2023/08/20 12:11:28;;;;;;;5.05;3.78;;;35.40;59.00;;;;;;7617223;19;20600;-78
2023/08/20 12:14:01;;;;;;;8.82;4.75;;;35.60;57.50;;;;;;7619892;19;20006;-78
2023/08/20 12:16:33;;;;;;;6.97;4.60;;;35.70;56.90;;;;;;7618719;19;20022;-79
2023/08/20 12:19:05;;;;;;;6.03;4.38;;;35.90;57.40;;;;;;7620388;19;20020;-78
2023/08/20 12:21:38;;;;;;;11.60;4.60;;;36.20;56.30;;;;;;7619803;19;20082;-77
2023/08/20 12:24:11;;;;;;;5.25;4.50;;;36.10;56.30;;;;;;7622343;19;20006;-78
2023/08/20 12:26:43;;;;;;;11.32;4.85;;;36.30;57.00;;;;;;7626676;19;20022;-79
2023/08/20 12:29:16;;;;;;;10.55;5.45;;;36.70;59.00;;;;;;7631698;19;20010;-77
2023/08/20 12:31:48;;;;;;;6.30;4.38;;;36.80;55.70;;;;;;7628209;19;20019;-78
2023/08/20 12:34:21;;;;;;;7.35;4.85;;;36.70;54.30;;;;;;7629279;19;20054;-78
2023/08/20 12:36:54;;;;;;;6.63;4.13;;;36.70;55.30;;;;;;7625604;19;20038;-79
2023/08/20 12:39:26;;;;;;;5.18;4.10;;;36.80;54.50;;;;;;7627788;19;20022;-79
2023/08/20 12:41:59;;;;;;;6.07;4.38;;;36.80;54.40;;;;;;7625066;19;20385;-78
2023/08/20 12:44:31;;;;;;;9.00;4.78;;;36.90;55.00;;;;;;7625817;19;20018;-77
2023/08/20 12:47:04;;;;;;;11.32;4.72;;;37.10;55.90;;;;;;7625547;19;20258;-78
2023/08/20 12:49:36;;;;;;;6.00;4.18;;;37.30;53.90;;;;;;7630223;19;20605;-77
2023/08/20 12:52:08;;;;;;;8.20;4.13;;;37.20;53.00;;;;;;7635083;19;20311;-78
2023/08/20 12:54:41;;;;;;;;;;;37.00;52.30;;;;;;7626707;19;20530;-77
2023/08/20 12:57:13;;;;;;;7.03;4.43;;;37.30;52.80;;;;;;7623188;19;19922;-77
2023/08/20 12:59:45;;;;;;;7.97;4.53;;;37.50;53.50;;;;;;7625694;19;20014;-77
2023/08/20 13:02:19;;;;;;;8.02;4.10;;;37.60;50.60;;;;;;7621696;19;20284;-76
2023/08/20 13:04:52;;;;;;;9.25;4.40;;;37.60;51.60;;;;;;7618687;19;20034;-78
2023/08/20 13:07:24;;;;;;;4.53;4.13;;;37.80;52.50;;;;;;7632581;19;20022;-78
2023/08/20 13:09:57;;;;;;;;;;;37.70;50.80;;;;;;7624204;19;20022;-76
2023/08/20 13:12:31;;;;;;;6.10;3.90;;;37.50;51.20;;;;;;7625020;19;19915;-78
2023/08/20 13:15:05;;;;;;;11.57;4.63;;;37.70;50.60;;;;;;7625701;19;20117;-77
2023/08/20 13:17:38;;;;;;;6.00;4.13;;;37.70;51.40;;;;;;7629068;19;20025;-77